createdAt,value
2022-12-25T00:00:51.062Z,9.08
2022-12-25T00:05:54.691Z,9.83
2022-12-25T00:11:01.709Z,9.54
2022-12-25T00:16:08.636Z,9.84
2022-12-25T00:21:13.683Z,8.74
2022-12-25T00:26:18.314Z,8.83
2022-12-25T00:31:23.166Z,9.90
2022-12-25T00:36:39.536Z,9.83
2022-12-25T00:42:02.014Z,9.93
2022-12-25T00:47:06.075Z,9.97
2022-12-25T00:52:11.499Z,10.03
2022-12-25T00:57:14.215Z,9.67
2022-12-25T01:02:29.106Z,10.06
2022-12-25T01:07:32.040Z,10.08
2022-12-25T01:12:49.062Z,10.14
2022-12-25T01:18:00.675Z,10.21
2022-12-25T01:23:06.859Z,10.25
2022-12-25T01:28:10.028Z,10.22
2022-12-25T01:33:14.250Z,10.15
2022-12-25T01:38:17.045Z,9.61
2022-12-25T01:43:24.382Z,10.01
2022-12-25T01:48:30.431Z,10.42
2022-12-25T01:53:33.818Z,9.93
2022-12-25T01:58:37.057Z,10.48
2022-12-25T02:03:43.438Z,10.46
2022-12-25T02:08:46.408Z,10.40
2022-12-25T02:13:48.959Z,10.43
2022-12-25T02:18:57.600Z,10.43
2022-12-25T02:24:22.964Z,10.43
2022-12-25T02:29:34.141Z,10.46
2022-12-25T02:34:45.092Z,10.63
2022-12-25T02:39:59.817Z,10.89
2022-12-25T02:45:22.109Z,10.59
2022-12-25T02:50:44.162Z,10.57
2022-12-25T02:56:06.995Z,10.56
2022-12-25T03:01:33.451Z,10.56
2022-12-25T03:06:44.200Z,10.49
2022-12-25T03:11:49.189Z,10.45
2022-12-25T03:16:56.751Z,10.31
2022-12-25T03:22:17.028Z,10.38
2022-12-25T03:27:19.882Z,10.35
2022-12-25T03:32:36.771Z,10.39
2022-12-25T03:38:05.714Z,10.33
2022-12-25T03:43:43.357Z,10.35
2022-12-25T03:49:11.142Z,10.37
2022-12-25T03:54:33.951Z,10.34
2022-12-25T03:59:54.176Z,10.37
2022-12-25T04:05:15.899Z,10.32
2022-12-25T04:10:36.523Z,10.26
2022-12-25T04:15:56.878Z,10.23
2022-12-25T04:21:18.715Z,9.77
2022-12-25T04:26:39.271Z,10.16
2022-12-25T04:31:59.657Z,10.23
2022-12-25T04:37:03.528Z,10.26
2022-12-25T04:42:06.152Z,10.18
2022-12-25T04:47:11.539Z,10.23
2022-12-25T04:52:15.744Z,10.19
2022-12-25T04:57:18.410Z,10.20
2022-12-25T05:02:21.050Z,10.20
2022-12-25T05:07:25.078Z,10.16
2022-12-25T05:12:27.675Z,10.19
2022-12-25T05:17:30.187Z,10.19
2022-12-25T05:22:34.101Z,10.12
2022-12-25T05:27:36.622Z,10.36
2022-12-25T05:32:39.407Z,10.48
2022-12-25T05:37:43.306Z,10.48
2022-12-25T05:42:45.925Z,10.52
2022-12-25T05:47:48.450Z,10.52
2022-12-25T05:52:52.307Z,10.58
2022-12-25T05:57:54.838Z,10.61
2022-12-25T06:02:57.681Z,10.63
2022-12-25T06:08:01.699Z,10.64
2022-12-25T06:13:04.801Z,10.61
2022-12-25T06:18:07.402Z,10.54
2022-12-25T06:23:11.425Z,10.56
2022-12-25T06:28:14.027Z,10.55
2022-12-25T06:33:16.556Z,10.56
2022-12-25T06:38:20.709Z,10.67
2022-12-25T06:43:23.836Z,10.63
2022-12-25T06:48:26.344Z,10.69
2022-12-25T06:53:37.108Z,10.70
2022-12-25T06:58:44.016Z,10.75
2022-12-25T07:03:48.278Z,10.75
2022-12-25T07:08:52.302Z,10.81
2022-12-25T07:13:55.006Z,10.81
2022-12-25T07:18:59.851Z,10.85
2022-12-25T07:24:03.845Z,10.93
2022-12-25T07:29:06.933Z,10.93
2022-12-25T07:34:10.263Z,10.96
2022-12-25T07:39:16.252Z,10.96
2022-12-25T07:44:19.225Z,10.99
2022-12-25T07:49:21.844Z,10.97
2022-12-25T07:54:25.884Z,11.00
2022-12-25T07:59:28.403Z,10.95
2022-12-25T08:04:31.161Z,11.07
2022-12-25T08:09:36.527Z,11.13
2022-12-25T08:14:39.124Z,11.12
2022-12-25T08:19:42.134Z,11.12
2022-12-25T08:24:46.013Z,11.26
2022-12-25T08:29:48.737Z,11.17
2022-12-25T08:35:01.526Z,11.40
2022-12-25T08:40:06.993Z,11.74
2022-12-25T08:45:11.017Z,12.19
2022-12-25T08:50:13.534Z,11.85
2022-12-25T08:55:17.956Z,11.71
2022-12-25T09:00:21.105Z,11.61
2022-12-25T09:05:23.731Z,11.55
2022-12-25T09:10:27.615Z,11.54
2022-12-25T09:15:30.295Z,11.43
2022-12-25T09:20:33.136Z,11.33
2022-12-25T09:25:37.043Z,11.28
2022-12-25T09:30:39.644Z,11.16
2022-12-25T09:35:42.222Z,11.19
2022-12-25T09:40:46.567Z,11.08
2022-12-25T09:45:49.259Z,10.91
2022-12-25T09:50:56.069Z,11.12
2022-12-25T09:56:07.257Z,11.01
2022-12-25T10:01:19.843Z,11.01
2022-12-25T10:06:25.653Z,11.05
2022-12-25T10:11:42.722Z,11.07
2022-12-25T10:16:51.247Z,11.19
2022-12-25T10:21:59.574Z,11.18
2022-12-25T10:27:13.211Z,11.19
2022-12-25T10:32:15.828Z,11.27
2022-12-25T10:37:18.722Z,11.23
2022-12-25T10:42:41.018Z,11.12
2022-12-25T10:47:43.944Z,11.22
2022-12-25T10:53:00.349Z,11.21
2022-12-25T10:58:04.283Z,11.34
2022-12-25T11:03:07.112Z,11.34
2022-12-25T11:08:20.828Z,11.19
2022-12-25T11:13:27.307Z,11.23
2022-12-25T11:18:33.833Z,11.25
2022-12-25T11:23:36.402Z,11.25
2022-12-25T11:28:43.466Z,11.26
2022-12-25T11:33:52.760Z,11.33
2022-12-25T11:45:49.989Z,11.36
2022-12-25T11:50:56.516Z,11.30
2022-12-25T11:56:02.660Z,11.32
2022-12-25T12:01:16.999Z,11.13
2022-12-25T12:06:28.218Z,11.29
2022-12-25T12:11:36.108Z,11.29
2022-12-25T12:16:40.498Z,11.27
2022-12-25T12:21:49.565Z,11.30
2022-12-25T12:27:03.378Z,11.26
2022-12-25T12:32:41.553Z,11.26
2022-12-25T12:37:47.168Z,11.32
2022-12-25T12:42:52.208Z,11.38
2022-12-25T12:47:56.660Z,11.45
2022-12-25T13:06:41.694Z,11.32
2022-12-25T13:11:45.229Z,11.35
2022-12-25T13:16:50.072Z,11.33
2022-12-25T13:21:56.320Z,11.36
2022-12-25T13:26:59.878Z,10.78
2022-12-25T13:32:04.753Z,11.34
2022-12-25T13:37:11.156Z,11.39
2022-12-25T13:42:17.845Z,11.38
2022-12-25T13:47:24.239Z,11.38
2022-12-25T13:52:34.847Z,11.34
2022-12-25T13:57:40.754Z,11.38
2022-12-25T14:02:43.750Z,11.35
2022-12-25T14:07:51.918Z,11.34
2022-12-25T14:12:57.365Z,11.32
2022-12-25T14:24:50.971Z,11.36
2022-12-25T14:29:56.848Z,11.36
2022-12-25T14:35:03.610Z,11.35
2022-12-25T14:40:22.865Z,11.35
2022-12-25T14:45:31.824Z,11.21
2022-12-25T14:50:39.290Z,11.03
2022-12-25T14:55:48.304Z,11.36
2022-12-25T15:00:56.094Z,11.37
2022-12-25T15:06:01.159Z,11.37
2022-12-25T15:11:05.557Z,11.41
2022-12-25T15:16:15.353Z,11.40
2022-12-25T15:21:24.187Z,11.34
2022-12-25T15:26:30.226Z,11.38
2022-12-25T15:31:34.563Z,11.44
2022-12-25T15:36:37.189Z,11.37
2022-12-25T15:41:59.149Z,11.40
2022-12-25T15:47:02.207Z,11.42
2022-12-25T15:52:05.159Z,11.51
2022-12-25T15:57:18.788Z,11.49
2022-12-25T16:02:21.914Z,11.52
2022-12-25T16:07:25.724Z,11.53
2022-12-25T16:12:29.739Z,11.49
2022-12-25T16:17:35.660Z,11.35
2022-12-25T16:22:40.915Z,11.38
2022-12-25T16:27:46.404Z,11.30
2022-12-25T16:32:50.953Z,11.40
2022-12-25T16:37:53.494Z,11.49
2022-12-25T16:42:57.653Z,11.50
2022-12-25T16:48:00.222Z,11.53
2022-12-25T16:53:02.901Z,11.52
2022-12-25T16:58:08.208Z,11.53
2022-12-25T17:03:11.334Z,11.54
2022-12-25T17:08:15.696Z,11.61
2022-12-25T17:13:20.230Z,11.50
2022-12-25T17:18:22.846Z,11.63
2022-12-25T17:23:27.179Z,11.14
2022-12-25T17:28:31.518Z,11.60
2022-12-25T17:33:36.810Z,11.63
2022-12-25T17:38:40.375Z,11.64
2022-12-25T17:43:45.658Z,11.59
2022-12-25T17:48:49.887Z,11.66
2022-12-25T17:53:54.150Z,11.65
2022-12-25T17:59:01.571Z,11.66
2022-12-25T18:04:05.003Z,11.66
2022-12-25T18:09:11.100Z,11.71
2022-12-25T18:14:17.337Z,11.72
2022-12-25T18:19:20.236Z,11.68
2022-12-25T18:24:22.777Z,11.67
2022-12-25T18:29:26.817Z,11.65
2022-12-25T18:34:29.427Z,11.62
2022-12-25T18:39:33.478Z,11.60
2022-12-25T18:44:37.645Z,11.66
2022-12-25T18:49:40.192Z,11.64
2022-12-25T18:54:45.855Z,11.67
2022-12-25T18:59:50.185Z,11.66
2022-12-25T19:04:53.005Z,11.65
2022-12-25T19:09:55.591Z,11.61
2022-12-25T19:15:00.219Z,11.63
2022-12-25T19:20:03.130Z,11.64
2022-12-25T19:25:07.676Z,11.58
2022-12-25T19:30:14.201Z,11.34
2022-12-25T19:35:17.345Z,11.08
2022-12-25T19:40:20.283Z,11.55
2022-12-25T19:45:26.321Z,11.51
2022-12-25T19:50:32.880Z,11.42
2022-12-25T19:55:35.478Z,11.47
2022-12-25T20:00:40.261Z,11.50
2022-12-25T20:05:45.826Z,11.38
2022-12-25T20:10:48.392Z,11.43
2022-12-25T20:15:52.467Z,11.33
2022-12-25T20:21:00.506Z,11.37
2022-12-25T20:26:04.941Z,11.54
2022-12-25T20:31:10.576Z,11.48
2022-12-25T20:36:13.832Z,11.43
2022-12-25T20:41:27.763Z,11.51
2022-12-25T20:46:33.132Z,11.44
2022-12-25T20:51:36.377Z,11.52
2022-12-25T20:56:40.292Z,11.55
2022-12-25T21:01:44.485Z,11.63
2022-12-25T21:06:49.041Z,11.73
2022-12-25T21:11:51.700Z,11.63
2022-12-25T21:16:56.318Z,11.64
2022-12-25T21:21:58.998Z,11.72
2022-12-25T21:27:01.660Z,11.70
2022-12-25T21:32:23.825Z,11.71
2022-12-25T21:37:26.460Z,11.88
2022-12-25T21:42:29.474Z,11.76
2022-12-25T21:48:01.622Z,11.63
2022-12-25T21:52:56.177Z,11.52
2022-12-25T21:57:58.743Z,11.49
2022-12-25T22:03:02.809Z,11.54
2022-12-25T22:08:05.901Z,11.50
2022-12-25T22:13:27.856Z,11.68
2022-12-25T22:18:49.953Z,11.73
2022-12-25T22:23:52.639Z,11.73
2022-12-25T22:28:55.478Z,11.95
2022-12-25T22:33:59.597Z,11.84
2022-12-25T22:46:03.715Z,11.86
2022-12-25T22:51:07.777Z,12.15
2022-12-25T22:56:10.511Z,12.13
2022-12-25T23:01:14.139Z,12.21
2022-12-25T23:06:18.212Z,12.27
2022-12-25T23:11:20.981Z,11.95
2022-12-25T23:16:23.594Z,12.12
2022-12-25T23:21:46.321Z,12.05
2022-12-25T23:26:48.911Z,11.85
2022-12-25T23:31:53.517Z,11.79
2022-12-25T23:36:57.514Z,11.38
2022-12-25T23:42:00.715Z,11.69
2022-12-25T23:47:03.786Z,11.67
2022-12-25T23:52:07.850Z,11.68
2022-12-25T23:57:10.452Z,11.51
